createdAt,value
2022-09-26T00:02:14.116Z,12.17
2022-09-26T00:04:43.827Z,12.18
2022-09-26T00:07:13.587Z,12.12
2022-09-26T00:09:43.271Z,12.04
2022-09-26T00:12:15.609Z,11.98
2022-09-26T00:14:45.337Z,11.92
2022-09-26T00:17:15.083Z,11.95
2022-09-26T00:19:44.771Z,11.59
2022-09-26T00:22:14.501Z,11.48
2022-09-26T00:24:44.126Z,11.62
2022-09-26T00:27:16.440Z,11.66
2022-09-26T00:29:46.115Z,11.63
2022-09-26T00:32:15.799Z,11.60
2022-09-26T00:34:45.480Z,11.71
2022-09-26T00:37:15.414Z,11.69
2022-09-26T00:39:45.135Z,11.74
2022-09-26T00:42:18.877Z,11.73
2022-09-26T00:44:51.326Z,11.73
2022-09-26T00:47:41.336Z,11.76
2022-09-26T00:50:18.865Z,11.80
2022-09-26T00:52:53.946Z,11.65
2022-09-26T00:55:30.305Z,11.75
2022-09-26T00:58:07.296Z,11.81
2022-09-26T01:00:37.585Z,11.82
2022-09-26T01:03:07.775Z,11.78
2022-09-26T01:05:39.531Z,11.74
2022-09-26T01:08:09.979Z,11.73
2022-09-26T01:10:40.765Z,11.67
2022-09-26T01:13:13.243Z,11.65
2022-09-26T01:15:42.925Z,11.64
2022-09-26T01:18:12.696Z,11.66
2022-09-26T01:24:02.492Z,11.65
2022-09-26T01:26:54.902Z,11.67
2022-09-26T01:30:04.198Z,11.74
2022-09-26T01:33:00.990Z,11.77
2022-09-26T01:35:42.683Z,11.73
2022-09-26T01:38:24.564Z,11.66
2022-09-26T01:41:07.856Z,11.56
2022-09-26T01:43:45.984Z,11.38
2022-09-26T01:46:26.430Z,11.33
2022-09-26T01:49:05.756Z,11.24
2022-09-26T01:51:41.435Z,11.23
2022-09-26T01:54:16.623Z,11.25
2022-09-26T01:56:49.643Z,11.07
2022-09-26T01:59:24.407Z,11.13
2022-09-26T02:01:58.075Z,11.06
2022-09-26T02:04:34.004Z,11.05
2022-09-26T02:07:08.854Z,11.18
2022-09-26T02:09:43.228Z,11.37
2022-09-26T02:12:17.568Z,11.36
2022-09-26T02:14:50.760Z,11.19
2022-09-26T02:17:23.164Z,11.08
2022-09-26T02:20:02.103Z,10.90
2022-09-26T02:22:34.709Z,10.96
2022-09-26T02:25:05.542Z,11.23
2022-09-26T02:27:35.322Z,11.34
2022-09-26T02:30:05.102Z,11.15
2022-09-26T02:32:35.829Z,11.12
2022-09-26T02:35:27.361Z,11.02
2022-09-26T02:37:57.336Z,11.06
2022-09-26T02:40:36.908Z,10.96
2022-09-26T02:43:26.516Z,11.00
2022-09-26T02:46:03.938Z,11.31
2022-09-26T02:48:52.553Z,11.29
2022-09-26T02:51:37.041Z,11.23
2022-09-26T02:54:18.908Z,10.94
2022-09-26T02:57:00.040Z,11.04
2022-09-26T02:59:36.706Z,11.03
2022-09-26T03:02:15.946Z,11.30
2022-09-26T03:04:52.490Z,11.36
2022-09-26T03:07:32.659Z,11.32
2022-09-26T03:10:06.566Z,11.41
2022-09-26T03:12:37.202Z,11.34
2022-09-26T03:15:09.431Z,11.08
2022-09-26T03:17:42.765Z,11.04
2022-09-26T03:20:15.301Z,10.97
2022-09-26T03:22:48.283Z,10.84
2022-09-26T03:25:20.574Z,10.88
2022-09-26T03:27:51.038Z,11.07
2022-09-26T03:30:22.457Z,11.17
2022-09-26T03:32:52.275Z,11.03
2022-09-26T03:35:21.969Z,10.82
2022-09-26T03:37:54.239Z,10.76
2022-09-26T03:40:24.006Z,10.83
2022-09-26T03:42:53.773Z,10.99
2022-09-26T03:45:23.647Z,11.14
2022-09-26T03:47:58.860Z,11.02
2022-09-26T03:50:28.638Z,11.15
2022-09-26T03:53:00.930Z,11.06
2022-09-26T03:55:30.876Z,10.97
2022-09-26T03:58:02.731Z,10.86
2022-09-26T04:00:32.476Z,11.25
2022-09-26T04:03:03.269Z,11.21
2022-09-26T04:05:32.979Z,11.00
2022-09-26T04:08:05.949Z,10.68
2022-09-26T04:10:35.599Z,10.71
2022-09-26T04:13:05.263Z,10.93
2022-09-26T04:15:35.331Z,10.71
2022-09-26T04:18:04.993Z,10.79
2022-09-26T04:20:34.707Z,10.63
2022-09-26T04:23:06.963Z,10.56
2022-09-26T04:25:39.951Z,10.78
2022-09-26T04:28:09.608Z,10.94
2022-09-26T04:30:40.223Z,10.87
2022-09-26T04:33:09.857Z,10.77
2022-09-26T04:35:39.595Z,10.62
2022-09-26T04:38:12.045Z,10.83
2022-09-26T04:40:42.960Z,10.86
2022-09-26T04:43:13.162Z,10.94
2022-09-26T04:45:44.331Z,10.80
2022-09-26T04:48:14.095Z,10.73
2022-09-26T04:50:43.769Z,10.90
2022-09-26T04:53:16.322Z,10.89
2022-09-26T04:55:46.929Z,10.74
2022-09-26T04:58:17.457Z,10.82
2022-09-26T05:00:49.918Z,10.70
2022-09-26T05:03:20.289Z,10.68
2022-09-26T05:05:50.601Z,10.74
2022-09-26T05:08:23.691Z,10.53
2022-09-26T05:10:56.109Z,10.68
2022-09-26T05:13:25.988Z,10.60
2022-09-26T05:15:55.989Z,10.73
2022-09-26T05:18:26.381Z,10.76
2022-09-26T05:20:57.080Z,10.56
2022-09-26T05:23:51.031Z,10.34
2022-09-26T05:26:24.854Z,10.35
2022-09-26T05:28:57.216Z,10.56
2022-09-26T05:31:29.198Z,10.66
2022-09-26T05:33:59.401Z,10.39
2022-09-26T05:36:30.324Z,10.40
2022-09-26T05:39:02.933Z,10.09
2022-09-26T05:41:31.399Z,10.14
2022-09-26T05:44:01.115Z,10.18
2022-09-26T05:46:32.157Z,10.00
2022-09-26T05:49:01.842Z,9.96
2022-09-26T05:51:33.649Z,9.97
2022-09-26T05:54:06.115Z,9.93
2022-09-26T05:56:38.015Z,9.90
2022-09-26T05:59:08.308Z,10.02
2022-09-26T06:01:38.576Z,10.01
2022-09-26T06:04:08.283Z,10.16
2022-09-26T06:06:38.034Z,10.31
2022-09-26T06:09:10.460Z,10.37
2022-09-26T06:11:40.170Z,10.22
2022-09-26T06:14:10.504Z,10.34
2022-09-26T06:16:40.350Z,10.44
2022-09-26T06:19:10.177Z,10.45
2022-09-26T06:21:40.373Z,10.62
2022-09-26T06:24:13.290Z,10.55
2022-09-26T06:26:42.957Z,10.66
2022-09-26T06:29:13.844Z,10.47
2022-09-26T06:31:43.680Z,10.37
2022-09-26T06:34:14.067Z,10.46
2022-09-26T06:36:44.288Z,10.66
2022-09-26T06:39:16.789Z,10.65
2022-09-26T06:41:46.617Z,10.82
2022-09-26T06:44:17.300Z,10.92
2022-09-26T06:46:47.013Z,11.07
2022-09-26T06:49:16.803Z,11.45
2022-09-26T06:51:46.620Z,13.71
2022-09-26T06:54:18.931Z,14.61
2022-09-26T06:56:48.625Z,13.84
2022-09-26T06:59:19.127Z,13.06
2022-09-26T07:01:49.129Z,12.52
2022-09-26T07:04:18.881Z,12.21
2022-09-26T07:06:48.610Z,12.14
2022-09-26T07:09:21.018Z,11.84
2022-09-26T07:12:13.441Z,11.85
2022-09-26T07:14:40.486Z,11.73
2022-09-26T07:17:10.330Z,11.66
2022-09-26T07:19:40.059Z,11.60
2022-09-26T07:22:09.862Z,11.58
2022-09-26T07:24:45.235Z,11.61
2022-09-26T07:27:15.453Z,11.75
2022-09-26T07:29:47.397Z,12.15
2022-09-26T07:32:17.229Z,12.65
2022-09-26T07:34:48.219Z,12.79
2022-09-26T07:37:18.327Z,13.19
2022-09-26T07:39:54.120Z,13.37
2022-09-26T07:42:25.230Z,13.89
2022-09-26T07:45:24.626Z,13.97
2022-09-26T07:47:57.008Z,13.67
2022-09-26T07:50:26.774Z,13.66
2022-09-26T07:52:57.731Z,13.32
2022-09-26T07:55:31.315Z,13.23
2022-09-26T07:58:00.979Z,13.05
2022-09-26T08:00:31.683Z,13.03
2022-09-26T08:03:04.980Z,13.09
2022-09-26T08:05:35.626Z,13.07
2022-09-26T08:08:05.346Z,13.03
2022-09-26T08:10:37.694Z,13.07
2022-09-26T08:13:07.444Z,12.81
2022-09-26T08:15:37.055Z,12.84
2022-09-26T08:18:07.460Z,12.68
2022-09-26T08:20:37.301Z,12.68
2022-09-26T08:23:06.969Z,12.91
2022-09-26T08:25:39.285Z,13.08
2022-09-26T08:28:12.348Z,13.12
2022-09-26T08:30:42.489Z,12.98
2022-09-26T08:33:14.140Z,12.98
2022-09-26T08:35:43.878Z,13.16
2022-09-26T08:38:14.555Z,13.01
2022-09-26T08:40:55.985Z,13.09
2022-09-26T08:43:39.635Z,13.01
2022-09-26T08:46:41.014Z,13.01
2022-09-26T08:49:27.030Z,13.30
2022-09-26T08:51:58.776Z,13.48
2022-09-26T08:54:37.505Z,13.86
2022-09-26T08:57:17.120Z,14.15
2022-09-26T08:59:49.959Z,14.25
2022-09-26T09:02:26.632Z,14.57
2022-09-26T09:05:04.160Z,14.60
2022-09-26T09:07:35.008Z,15.07
2022-09-26T09:10:07.811Z,15.48
2022-09-26T09:12:53.807Z,15.75
2022-09-26T09:15:35.131Z,15.86
2022-09-26T09:18:18.776Z,16.02
2022-09-26T09:20:59.892Z,16.13
2022-09-26T09:23:43.298Z,16.47
2022-09-26T09:29:38.014Z,16.53
2022-09-26T09:32:09.036Z,16.62
2022-09-26T09:34:44.798Z,16.52
2022-09-26T09:37:18.526Z,16.41
2022-09-26T09:39:51.329Z,16.70
2022-09-26T09:42:29.464Z,16.69
2022-09-26T09:45:07.325Z,16.77
2022-09-26T09:47:41.344Z,17.14
2022-09-26T09:50:17.348Z,17.48
2022-09-26T09:52:59.632Z,17.19
2022-09-26T09:55:40.627Z,16.79
2022-09-26T09:58:30.291Z,16.84
2022-09-26T10:01:09.997Z,17.09
2022-09-26T10:03:44.580Z,16.61
2022-09-26T10:06:44.468Z,16.26
2022-09-26T10:09:36.038Z,15.96
2022-09-26T10:12:11.082Z,15.99
2022-09-26T10:14:48.815Z,16.04
2022-09-26T10:17:22.928Z,16.00
2022-09-26T10:19:53.003Z,16.55
2022-09-26T10:22:29.427Z,16.60
2022-09-26T10:25:05.539Z,16.58
2022-09-26T10:27:38.912Z,16.34
2022-09-26T10:30:26.010Z,16.10
2022-09-26T10:33:01.848Z,15.89
2022-09-26T10:35:43.311Z,15.77
2022-09-26T10:38:23.469Z,15.68
2022-09-26T10:40:55.002Z,15.56
2022-09-26T10:43:28.962Z,15.61
2022-09-26T10:46:05.530Z,15.43
2022-09-26T10:48:47.664Z,15.42
2022-09-26T10:51:25.065Z,16.72
2022-09-26T10:53:58.441Z,18.04
2022-09-26T10:56:32.182Z,19.51
2022-09-26T10:59:10.088Z,20.17
2022-09-26T11:01:44.760Z,19.64
2022-09-26T11:04:40.943Z,18.71
2022-09-26T11:07:11.192Z,17.85
2022-09-26T11:09:41.367Z,17.47
2022-09-26T11:12:25.586Z,17.21
2022-09-26T11:15:02.245Z,17.66
2022-09-26T11:17:47.313Z,17.48
2022-09-26T11:20:30.309Z,17.54
2022-09-26T11:23:09.653Z,17.33
2022-09-26T11:25:57.791Z,17.30
2022-09-26T11:28:34.473Z,17.12
2022-09-26T11:31:09.181Z,16.94
2022-09-26T11:33:45.276Z,17.08
2022-09-26T11:36:39.837Z,17.00
2022-09-26T11:39:20.877Z,16.74
2022-09-26T11:42:05.408Z,16.73
2022-09-26T11:44:51.599Z,17.00
2022-09-26T11:48:08.710Z,16.64
2022-09-26T11:50:48.091Z,17.44
2022-09-26T11:53:55.677Z,18.17
2022-09-26T11:56:50.091Z,18.69
2022-09-26T11:59:43.276Z,18.59
2022-09-26T12:02:56.187Z,18.38
2022-09-26T12:05:34.940Z,18.28
2022-09-26T12:08:25.939Z,18.78
2022-09-26T12:11:10.655Z,19.15
2022-09-26T12:13:52.603Z,18.80
2022-09-26T12:16:29.448Z,18.06
2022-09-26T12:19:10.476Z,17.74
2022-09-26T12:22:09.978Z,17.27
2022-09-26T12:24:48.558Z,16.47
2022-09-26T12:27:28.392Z,16.10
2022-09-26T12:30:05.473Z,15.93
2022-09-26T12:32:49.773Z,15.97
2022-09-26T12:35:29.827Z,16.43
2022-09-26T12:38:20.545Z,16.74
2022-09-26T12:41:02.562Z,16.94
2022-09-26T12:43:54.610Z,17.05
2022-09-26T12:46:44.917Z,17.40
2022-09-26T12:49:35.308Z,17.63
2022-09-26T12:52:13.021Z,17.36
2022-09-26T12:55:04.178Z,17.34
2022-09-26T12:57:44.284Z,17.39
2022-09-26T13:00:21.905Z,18.09
2022-09-26T13:03:19.107Z,18.19
2022-09-26T13:06:19.171Z,18.19
2022-09-26T13:08:57.479Z,17.96
2022-09-26T13:11:34.055Z,17.73
2022-09-26T13:14:34.089Z,17.38
2022-09-26T13:17:13.584Z,16.95
2022-09-26T13:19:48.404Z,16.71
2022-09-26T13:22:31.792Z,16.62
2022-09-26T13:25:08.881Z,16.44
2022-09-26T13:27:44.241Z,16.13
2022-09-26T13:30:21.238Z,16.07
2022-09-26T13:33:02.278Z,15.97
2022-09-26T13:35:35.999Z,15.71
2022-09-26T13:38:18.894Z,15.57
2022-09-26T13:40:56.507Z,15.56
2022-09-26T13:43:48.739Z,15.53
2022-09-26T13:46:31.102Z,15.52
2022-09-26T13:49:25.283Z,15.39
2022-09-26T13:52:10.924Z,15.43
2022-09-26T13:54:58.072Z,15.50
2022-09-26T13:57:48.192Z,15.53
2022-09-26T14:00:49.382Z,15.77
2022-09-26T14:03:44.463Z,16.09
2022-09-26T14:06:37.646Z,16.32
2022-09-26T14:09:24.225Z,16.43
2022-09-26T14:12:17.678Z,16.33
2022-09-26T14:14:55.911Z,16.41
2022-09-26T14:17:58.170Z,16.43
2022-09-26T14:20:31.433Z,16.43
2022-09-26T14:23:01.521Z,16.47
2022-09-26T14:25:58.616Z,16.34
2022-09-26T14:28:35.555Z,16.00
2022-09-26T14:31:41.415Z,15.98
2022-09-26T14:34:24.595Z,15.94
2022-09-26T14:36:56.659Z,15.73
2022-09-26T14:39:35.600Z,15.51
2022-09-26T14:42:22.008Z,15.59
2022-09-26T14:44:58.522Z,15.53
2022-09-26T14:47:33.297Z,15.38
2022-09-26T14:50:06.725Z,15.50
2022-09-26T14:52:40.017Z,15.46
2022-09-26T14:55:10.816Z,15.56
2022-09-26T14:57:40.988Z,15.65
2022-09-26T15:00:40.685Z,15.61
2022-09-26T15:03:17.714Z,15.58
2022-09-26T15:05:49.414Z,15.49
2022-09-26T15:08:28.383Z,15.26
2022-09-26T15:11:00.866Z,15.25
2022-09-26T15:13:37.346Z,15.16
2022-09-26T15:16:21.316Z,15.31
2022-09-26T15:18:58.312Z,15.09
2022-09-26T15:21:35.779Z,15.13
2022-09-26T15:24:08.088Z,15.08
2022-09-26T15:26:39.993Z,14.95
2022-09-26T15:29:10.611Z,14.90
2022-09-26T15:31:42.566Z,14.81
2022-09-26T15:34:19.952Z,14.89
2022-09-26T15:36:54.903Z,14.82
2022-09-26T15:39:43.817Z,14.82
2022-09-26T15:42:35.634Z,14.77
2022-09-26T15:45:23.198Z,14.71
2022-09-26T15:47:54.616Z,14.81
2022-09-26T15:50:30.317Z,14.66
2022-09-26T15:53:05.540Z,14.69
2022-09-26T15:55:40.693Z,14.62
2022-09-26T15:58:13.814Z,14.59
2022-09-26T16:00:48.121Z,14.55
2022-09-26T16:03:34.402Z,14.45
2022-09-26T16:06:10.350Z,14.36
2022-09-26T16:08:44.520Z,14.38
2022-09-26T16:11:14.242Z,14.33
2022-09-26T16:13:48.322Z,14.35
2022-09-26T16:16:21.597Z,14.25
2022-09-26T16:18:57.308Z,14.34
2022-09-26T16:21:33.993Z,14.29
2022-09-26T16:24:25.310Z,14.29
2022-09-26T16:26:55.090Z,14.29
2022-09-26T16:29:34.833Z,14.16
2022-09-26T16:32:06.226Z,14.22
2022-09-26T16:34:36.089Z,14.18
2022-09-26T16:37:19.781Z,14.20
2022-09-26T16:39:59.553Z,14.06
2022-09-26T16:42:33.004Z,14.09
2022-09-26T16:45:07.515Z,14.15
2022-09-26T16:47:44.618Z,14.27
2022-09-26T16:50:29.014Z,14.14
2022-09-26T16:53:02.561Z,14.08
2022-09-26T16:55:37.664Z,13.94
2022-09-26T16:58:08.399Z,13.95
2022-09-26T17:00:52.637Z,13.88
2022-09-26T17:03:24.776Z,13.79
2022-09-26T17:05:56.456Z,13.69
2022-09-26T17:08:29.698Z,13.79
2022-09-26T17:11:03.540Z,13.74
2022-09-26T17:13:36.570Z,13.79
2022-09-26T17:16:07.036Z,13.85
2022-09-26T17:18:36.752Z,13.88
2022-09-26T17:21:06.781Z,13.80
2022-09-26T17:23:41.849Z,13.71
2022-09-26T17:26:19.900Z,13.68
2022-09-26T17:28:49.952Z,13.70
2022-09-26T17:31:22.003Z,13.72
2022-09-26T17:33:54.445Z,13.64
2022-09-26T17:36:26.360Z,13.53
2022-09-26T17:39:01.139Z,13.65
2022-09-26T17:41:32.831Z,13.66
2022-09-26T17:44:02.613Z,13.51
2022-09-26T17:46:32.616Z,13.56
2022-09-26T17:49:05.452Z,13.41
2022-09-26T17:51:36.452Z,13.57
2022-09-26T17:54:10.344Z,13.40
2022-09-26T17:56:40.107Z,13.43
2022-09-26T17:59:22.777Z,13.39
2022-09-26T18:01:58.514Z,13.36
2022-09-26T18:04:29.302Z,13.32
2022-09-26T18:07:04.556Z,13.22
2022-09-26T18:09:39.357Z,13.13
2022-09-26T18:12:12.463Z,13.26
2022-09-26T18:14:42.360Z,13.20
2022-09-26T18:17:18.123Z,13.09
2022-09-26T18:19:48.766Z,13.15
2022-09-26T18:22:20.920Z,13.19
2022-09-26T18:24:56.756Z,13.23
2022-09-26T18:27:26.506Z,13.17
2022-09-26T18:29:56.258Z,13.20
2022-09-26T18:32:29.791Z,13.13
2022-09-26T18:34:59.635Z,13.11
2022-09-26T18:37:29.377Z,13.07
2022-09-26T18:40:04.274Z,13.07
2022-09-26T18:42:35.441Z,13.00
2022-09-26T18:45:08.725Z,13.00
2022-09-26T18:47:42.872Z,13.15
2022-09-26T18:50:24.559Z,13.01
2022-09-26T18:52:54.291Z,12.97
2022-09-26T18:55:42.711Z,13.01
2022-09-26T18:58:28.013Z,12.93
2022-09-26T19:01:00.583Z,13.03
2022-09-26T19:03:32.874Z,12.97
2022-09-26T19:06:06.329Z,13.04
2022-09-26T19:08:38.613Z,13.08
2022-09-26T19:11:17.484Z,13.19
2022-09-26T19:13:49.102Z,13.21
2022-09-26T19:16:19.461Z,13.00
2022-09-26T19:18:49.583Z,13.20
2022-09-26T19:21:29.744Z,12.98
2022-09-26T19:24:01.577Z,13.04
2022-09-26T19:26:38.753Z,13.05
2022-09-26T19:29:12.850Z,13.09
2022-09-26T19:31:42.752Z,13.15
2022-09-26T19:34:16.797Z,13.10
2022-09-26T19:36:46.738Z,13.12
2022-09-26T19:39:17.764Z,13.17
2022-09-26T19:41:50.236Z,13.14
2022-09-26T19:44:19.911Z,13.22
2022-09-26T19:46:50.245Z,13.09
2022-09-26T19:49:22.747Z,13.12
2022-09-26T19:51:52.487Z,13.06
2022-09-26T19:54:22.389Z,13.15
2022-09-26T19:56:54.663Z,13.25
2022-09-26T19:59:27.495Z,13.12
2022-09-26T20:01:57.689Z,13.20
2022-09-26T20:04:27.541Z,13.13
2022-09-26T20:06:58.573Z,13.11
2022-09-26T20:09:28.340Z,13.21
2022-09-26T20:12:00.684Z,13.24
2022-09-26T20:14:30.389Z,13.21
2022-09-26T20:17:02.494Z,13.08
2022-09-26T20:19:37.934Z,13.11
2022-09-26T20:22:13.547Z,13.18
2022-09-26T20:24:44.049Z,13.12
2022-09-26T20:27:21.299Z,13.23
2022-09-26T20:30:04.693Z,13.20
2022-09-26T20:32:34.651Z,13.26
2022-09-26T20:35:04.525Z,13.18
2022-09-26T20:37:36.592Z,13.10
2022-09-26T20:40:13.974Z,13.23
2022-09-26T20:42:49.482Z,13.24
2022-09-26T20:45:21.250Z,13.24
2022-09-26T20:47:51.029Z,13.20
2022-09-26T20:50:22.435Z,13.24
2022-09-26T20:52:52.616Z,13.27
2022-09-26T20:55:22.788Z,13.28
2022-09-26T20:57:55.080Z,13.07
2022-09-26T21:00:24.799Z,12.95
2022-09-26T21:02:56.614Z,12.93
2022-09-26T21:05:28.480Z,12.95
2022-09-26T21:07:59.189Z,12.73
2022-09-26T21:10:31.101Z,12.84
2022-09-26T21:13:04.288Z,12.83
2022-09-26T21:15:36.268Z,12.69
2022-09-26T21:18:06.048Z,12.61
2022-09-26T21:20:37.360Z,12.58
2022-09-26T21:23:07.198Z,12.57
2022-09-26T21:25:36.925Z,12.65
2022-09-26T21:28:26.408Z,12.68
2022-09-26T21:30:58.381Z,12.55
2022-09-26T21:33:28.650Z,12.52
2022-09-26T21:35:58.461Z,12.48
2022-09-26T21:38:28.917Z,12.55
2022-09-26T21:41:03.819Z,12.62
2022-09-26T21:43:42.533Z,12.54
2022-09-26T21:46:12.237Z,12.59
2022-09-26T21:48:42.583Z,12.43
2022-09-26T21:51:13.991Z,12.31
2022-09-26T21:53:47.585Z,12.33
2022-09-26T21:56:19.940Z,12.22
2022-09-26T21:58:53.341Z,12.17
2022-09-26T22:01:23.598Z,11.93
2022-09-26T22:03:53.466Z,11.95
2022-09-26T22:06:23.271Z,11.78
2022-09-26T22:08:53.203Z,11.73
2022-09-26T22:11:22.936Z,11.79
2022-09-26T22:13:56.503Z,11.69
2022-09-26T22:16:26.378Z,11.69
2022-09-26T22:18:56.210Z,11.81
2022-09-26T22:21:26.036Z,11.57
2022-09-26T22:23:56.106Z,11.68
2022-09-26T22:26:26.209Z,11.56
2022-09-26T22:28:58.521Z,11.42
2022-09-26T22:31:28.396Z,11.22
2022-09-26T22:33:59.605Z,11.25
2022-09-26T22:36:30.016Z,11.23
2022-09-26T22:38:59.752Z,11.33
2022-09-26T22:41:29.494Z,11.28
2022-09-26T22:44:01.982Z,11.13
2022-09-26T22:46:31.774Z,11.21
2022-09-26T22:49:01.668Z,11.14
2022-09-26T22:51:31.398Z,11.38
2022-09-26T22:54:01.147Z,11.18
2022-09-26T22:56:30.864Z,11.34
2022-09-26T22:59:04.706Z,11.14
2022-09-26T23:01:34.467Z,11.33
2022-09-26T23:04:04.855Z,11.31
2022-09-26T23:06:34.766Z,11.28
2022-09-26T23:09:04.547Z,10.96
2022-09-26T23:11:34.244Z,11.25
2022-09-26T23:14:06.535Z,11.17
2022-09-26T23:16:36.436Z,11.08
2022-09-26T23:19:06.485Z,11.08
2022-09-26T23:21:36.189Z,11.14
2022-09-26T23:24:05.936Z,10.98
2022-09-26T23:26:35.778Z,11.09
2022-09-26T23:29:08.129Z,11.04
2022-09-26T23:31:38.033Z,11.11
2022-09-26T23:34:08.170Z,10.93
2022-09-26T23:36:37.880Z,11.05
2022-09-26T23:39:07.667Z,11.09
2022-09-26T23:41:37.412Z,11.03
2022-09-26T23:44:09.952Z,11.08
2022-09-26T23:46:39.809Z,10.94
2022-09-26T23:49:09.650Z,11.16
2022-09-26T23:51:39.475Z,11.06
2022-09-26T23:54:09.636Z,10.96
2022-09-26T23:56:39.585Z,10.86
2022-09-26T23:59:12.041Z,10.78
